Time;durP1;ratioP1;P1;durP2;ratioP2;P2;SDS_P1;SDS_P2;PMS_P1;PMS_P2;Temp;Humidity;BMP_temperature;BMP_pressure;BME280_temperature;BME280_humidity;BME280_pressure;Samples;Min_cycle;Max_cycle;Signal;HPM_P1;HPM_P2
2021/05/28 00:00:17;;;;;;;2.10;2.00;;;17.50;99.90;;;;;;4956698;28;20479;-91
2021/05/28 00:02:43;;;;;;;2.40;2.03;;;17.50;99.90;;;;;;4941746;29;20193;-84
2021/05/28 00:05:09;;;;;;;3.07;2.27;;;17.50;99.90;;;;;;4962221;28;20974;-87
2021/05/28 00:07:35;;;;;;;4.40;2.20;;;17.50;99.90;;;;;;4955471;29;20185;-89
2021/05/28 00:10:00;;;;;;;2.27;1.87;;;17.50;99.90;;;;;;4955874;28;20403;-84
2021/05/28 00:12:26;;;;;;;2.50;2.30;;;17.50;99.90;;;;;;4938929;29;20192;-83
2021/05/28 00:14:52;;;;;;;2.67;2.47;;;17.40;99.90;;;;;;4939243;29;20178;-91
2021/05/28 00:17:18;;;;;;;2.30;2.20;;;17.40;99.90;;;;;;4955718;28;20204;-82
2021/05/28 00:19:43;;;;;;;3.80;2.60;;;17.30;99.90;;;;;;4955852;29;20581;-83
2021/05/28 00:22:09;;;;;;;2.73;2.50;;;17.10;99.90;;;;;;4938841;29;20724;-83
2021/05/28 00:24:35;;;;;;;2.37;2.23;;;17.00;99.90;;;;;;4955728;29;20174;-84
2021/05/28 00:27:01;;;;;;;2.93;2.73;;;17.00;99.90;;;;;;4941468;29;20201;-84
2021/05/28 00:29:26;;;;;;;2.63;2.43;;;16.90;99.90;;;;;;4940993;29;20454;-83
2021/05/28 00:31:52;;;;;;;2.50;2.30;;;16.90;99.90;;;;;;4956824;28;20209;-89
2021/05/28 00:34:18;;;;;;;2.90;2.60;;;16.80;99.90;;;;;;4941582;29;20182;-86
2021/05/28 00:36:43;;;;;;;2.33;2.20;;;16.80;99.90;;;;;;4959806;28;20197;-83
2021/05/28 00:39:09;;;;;;;2.90;2.70;;;16.80;99.90;;;;;;4939473;29;20181;-84
2021/05/28 00:41:35;;;;;;;3.50;2.50;;;16.90;99.90;;;;;;4955389;28;20255;-90
2021/05/28 00:44:02;;;;;;;3.20;2.90;;;16.80;99.90;;;;;;4938293;29;20193;-87
2021/05/28 00:46:27;;;;;;;2.50;2.30;;;16.80;99.90;;;;;;4938335;29;20821;-88
2021/05/28 00:48:56;;;;;;;2.97;2.67;;;17.50;99.90;;;;;;4939150;29;20510;-84
2021/05/28 00:51:22;;;;;;;3.27;2.97;;;17.60;99.90;;;;;;4941725;28;20273;-83
2021/05/28 00:53:49;;;;;;;4.23;2.60;;;17.80;99.90;;;;;;4977810;28;20438;-84
2021/05/28 00:56:16;;;;;;;2.70;2.50;;;18.00;99.90;;;;;;4982312;28;20426;-91
2021/05/28 00:58:41;;;;;;;3.57;2.70;;;18.10;99.90;;;;;;4957571;28;20447;-85
2021/05/28 01:01:08;;;;;;;2.77;2.57;;;17.80;99.90;;;;;;4974577;28;20561;-84
2021/05/28 01:03:33;;;;;;;4.00;3.00;;;17.50;99.90;;;;;;4974389;28;20188;-91
2021/05/28 01:05:59;;;;;;;3.43;3.00;;;17.60;99.90;;;;;;4957838;28;20437;-90
2021/05/28 01:08:25;;;;;;;3.50;3.20;;;17.40;99.90;;;;;;4957762;28;20634;-94
2021/05/28 01:10:51;;;;;;;4.33;2.80;;;17.60;99.90;;;;;;4957563;28;20292;-91
2021/05/28 01:13:16;;;;;;;3.50;2.83;;;17.30;99.90;;;;;;4957238;28;20458;-90
2021/05/28 01:15:42;;;;;;;3.10;2.87;;;16.90;99.90;;;;;;4974195;28;20200;-90
2021/05/28 01:18:09;;;;;;;3.33;3.03;;;16.90;99.90;;;;;;4976349;28;20192;-82
2021/05/28 01:20:35;;;;;;;3.30;2.83;;;16.70;99.90;;;;;;4975918;28;20235;-90
2021/05/28 01:23:02;;;;;;;3.90;3.60;;;16.70;99.90;;;;;;4959559;28;20528;-89
2021/05/28 01:25:29;;;;;;;3.23;2.93;;;16.50;99.90;;;;;;4956916;28;20442;-88
2021/05/28 01:27:55;;;;;;;3.50;3.30;;;16.50;99.90;;;;;;4960797;28;20484;-83
2021/05/28 01:30:26;;;;;;;3.13;2.77;;;16.40;99.90;;;;;;4957273;28;20434;-89
2021/05/28 01:32:52;;;;;;;3.63;3.33;;;16.20;99.90;;;;;;4956832;28;20442;-87
2021/05/28 01:35:18;;;;;;;3.17;2.87;;;16.20;99.90;;;;;;4957246;28;20457;-83
2021/05/28 01:37:44;;;;;;;3.50;3.20;;;16.20;99.90;;;;;;4957020;28;20447;-83
2021/05/28 01:40:11;;;;;;;5.90;4.37;;;16.20;99.90;;;;;;4956886;28;22377;-84
2021/05/28 01:42:37;;;;;;;3.43;3.13;;;16.10;99.90;;;;;;4956696;28;20962;-90
2021/05/28 01:45:05;;;;;;;4.20;3.90;;;16.20;99.90;;;;;;4974047;28;20475;-87
2021/05/28 01:47:31;;;;;;;3.23;2.93;;;16.10;99.90;;;;;;4956451;28;20558;-89
2021/05/28 01:49:57;;;;;;;4.50;3.33;;;16.10;99.90;;;;;;4973990;28;20403;-84
2021/05/28 01:52:24;;;;;;;3.50;3.17;;;16.10;99.90;;;;;;4956340;28;20479;-84
2021/05/28 01:54:49;;;;;;;3.70;3.03;;;16.00;99.90;;;;;;4956629;28;20458;-88
2021/05/28 01:57:15;;;;;;;3.67;3.37;;;15.90;99.90;;;;;;4958295;28;20879;-83
2021/05/28 01:59:42;;;;;;;3.83;3.13;;;15.90;99.90;;;;;;4959929;28;20191;-82
2021/05/28 02:02:08;;;;;;;3.90;3.60;;;15.80;99.90;;;;;;4956345;28;20259;-85
2021/05/28 02:04:34;;;;;;;3.57;3.27;;;15.90;99.90;;;;;;4956193;28;20438;-88
2021/05/28 02:07:01;;;;;;;3.87;3.40;;;15.80;99.90;;;;;;4956408;28;20736;-89
2021/05/28 02:09:26;;;;;;;4.90;4.20;;;15.70;99.90;;;;;;4957797;28;20176;-91
2021/05/28 02:11:52;;;;;;;3.77;3.43;;;15.70;99.90;;;;;;4956112;28;20815;-89
2021/05/28 02:14:18;;;;;;;3.67;3.37;;;15.60;99.90;;;;;;4956178;28;20648;-89
2021/05/28 02:16:44;;;;;;;4.43;3.13;;;15.60;99.90;;;;;;4973210;28;20235;-85
2021/05/28 02:19:10;;;;;;;3.50;3.23;;;15.50;99.90;;;;;;4973355;28;20212;-85
2021/05/28 02:21:36;;;;;;;3.20;3.00;;;15.50;99.90;;;;;;4973417;28;20212;-83
2021/05/28 02:24:03;;;;;;;9.40;3.80;;;15.50;99.90;;;;;;4973754;28;20433;-84
2021/05/28 02:26:29;;;;;;;3.53;2.90;;;15.40;99.90;;;;;;4959626;28;20442;-82
2021/05/28 02:28:55;;;;;;;3.47;3.13;;;15.50;99.90;;;;;;4970117;28;20509;-83
2021/05/28 02:31:20;;;;;;;3.53;3.23;;;15.40;99.90;;;;;;4978847;28;20215;-85
2021/05/28 02:33:46;;;;;;;3.40;3.10;;;15.40;99.90;;;;;;4956423;28;20188;-84
2021/05/28 02:36:11;;;;;;;3.90;3.33;;;15.40;99.90;;;;;;4973065;28;20212;-84
2021/05/28 02:38:37;;;;;;;3.40;3.10;;;15.30;99.90;;;;;;4956066;28;20543;-82
2021/05/28 02:41:04;;;;;;;3.50;3.20;;;15.30;99.90;;;;;;4955897;28;20224;-83
2021/05/28 02:43:29;;;;;;;3.53;3.20;;;15.30;99.90;;;;;;4973081;28;20226;-83
2021/05/28 02:45:56;;;;;;;3.30;3.10;;;15.20;99.90;;;;;;4973045;28;20513;-89
2021/05/28 02:48:22;;;;;;;3.10;2.90;;;15.10;99.90;;;;;;4955937;28;20271;-90
2021/05/28 02:50:48;;;;;;;3.40;3.10;;;15.10;99.90;;;;;;4972781;28;20909;-84
2021/05/28 02:53:14;;;;;;;3.63;3.33;;;15.20;99.90;;;;;;4955738;28;20266;-88
2021/05/28 02:55:39;;;;;;;4.43;3.40;;;15.20;99.90;;;;;;4959009;28;20232;-84
2021/05/28 02:58:05;;;;;;;3.60;3.30;;;15.20;99.90;;;;;;4973091;28;20496;-89
2021/05/28 03:00:31;;;;;;;2.97;2.67;;;15.10;99.90;;;;;;4955653;28;20238;-83
2021/05/28 03:02:57;;;;;;;3.17;2.97;;;15.00;99.90;;;;;;4972791;28;20422;-88
2021/05/28 03:05:23;;;;;;;2.50;2.30;;;15.00;99.90;;;;;;4956014;28;20442;-86
2021/05/28 03:07:49;;;;;;;3.20;3.00;;;14.90;99.90;;;;;;4959832;28;20442;-83
2021/05/28 03:10:15;;;;;;;2.80;2.47;;;14.80;99.90;;;;;;4971886;28;20223;-89
2021/05/28 03:12:44;;;;;;;4.27;2.70;;;14.80;99.90;;;;;;4954940;28;20541;-82
2021/05/28 03:15:10;;;;;;;3.00;2.77;;;14.80;99.90;;;;;;4955580;28;20528;-88
2021/05/28 03:17:40;;;;;;;2.93;2.73;;;14.50;99.90;;;;;;4955241;28;20513;-87
2021/05/28 03:20:15;;;;;;;3.07;2.77;;;14.50;99.90;;;;;;4955699;28;20419;-88
2021/05/28 03:22:41;;;;;;;3.67;2.90;;;14.40;99.90;;;;;;4972779;28;20900;-88
2021/05/28 03:25:11;;;;;;;3.30;2.87;;;14.30;99.90;;;;;;4955026;28;20423;-82
2021/05/28 03:27:38;;;;;;;3.37;3.07;;;14.50;99.90;;;;;;4955498;28;20189;-84
2021/05/28 03:30:06;;;;;;;3.30;3.00;;;14.40;99.90;;;;;;4956000;28;20414;-86
2021/05/28 03:32:32;;;;;;;2.90;2.70;;;14.40;99.90;;;;;;4963622;28;20472;-89
2021/05/28 03:34:58;;;;;;;3.37;2.70;;;14.40;99.90;;;;;;4955567;28;20445;-83
2021/05/28 03:37:25;;;;;;;3.90;3.60;;;14.40;99.90;;;;;;4955815;28;20431;-89
2021/05/28 03:39:51;;;;;;;3.40;3.20;;;14.50;99.90;;;;;;4982934;28;20177;-90
2021/05/28 03:42:18;;;;;;;3.20;2.87;;;14.50;99.90;;;;;;4961245;28;20486;-90
2021/05/28 03:44:44;;;;;;;4.20;2.80;;;14.40;99.90;;;;;;4975656;28;20477;-83
2021/05/28 03:47:10;;;;;;;5.40;2.87;;;14.40;99.90;;;;;;4955193;28;20459;-83
2021/05/28 03:49:37;;;;;;;4.17;3.10;;;14.50;99.90;;;;;;4954947;28;20421;-83
2021/05/28 03:52:03;;;;;;;4.03;3.73;;;14.40;99.90;;;;;;4963176;28;20272;-87
2021/05/28 03:54:28;;;;;;;5.30;3.53;;;14.40;99.90;;;;;;4954983;29;20920;-85
2021/05/28 03:56:54;;;;;;;2.57;2.33;;;14.40;99.90;;;;;;4934930;29;20461;-82
2021/05/28 03:59:20;;;;;;;3.10;2.80;;;14.40;99.90;;;;;;4934539;29;20185;-83
2021/05/28 04:01:46;;;;;;;3.10;2.67;;;14.40;99.90;;;;;;4934975;29;20241;-89
2021/05/28 04:04:11;;;;;;;3.13;2.80;;;14.40;99.90;;;;;;4935374;29;20177;-83
2021/05/28 04:06:37;;;;;;;3.80;3.50;;;14.40;99.90;;;;;;4934858;29;20875;-90
2021/05/28 04:09:04;;;;;;;3.40;2.60;;;14.50;99.90;;;;;;4952521;29;20230;-83
2021/05/28 04:11:29;;;;;;;3.47;3.10;;;14.40;99.90;;;;;;4934503;29;20228;-91
2021/05/28 04:13:55;;;;;;;3.40;3.03;;;14.40;99.90;;;;;;4936319;29;20824;-82
2021/05/28 04:16:21;;;;;;;3.80;3.47;;;14.40;99.90;;;;;;4942670;29;20201;-84
2021/05/28 04:18:47;;;;;;;3.50;3.20;;;14.40;99.90;;;;;;4935869;29;20567;-88
2021/05/28 04:21:12;;;;;;;3.63;3.33;;;14.40;99.90;;;;;;4952366;28;20467;-88
2021/05/28 04:23:38;;;;;;;4.23;3.93;;;14.60;99.90;;;;;;4938223;29;20700;-83
2021/05/28 04:26:04;;;;;;;4.20;3.20;;;14.60;99.90;;;;;;4937321;29;20288;-88
2021/05/28 04:28:30;;;;;;;5.07;3.40;;;14.60;99.90;;;;;;4958640;28;20181;-83
2021/05/28 04:30:56;;;;;;;3.53;3.23;;;14.70;99.90;;;;;;4962007;28;20426;-81
2021/05/28 04:33:22;;;;;;;3.30;3.00;;;14.80;99.90;;;;;;4961120;28;20438;-85
2021/05/28 04:35:48;;;;;;;3.73;3.00;;;14.70;99.90;;;;;;4959169;28;20508;-84
2021/05/28 04:38:13;;;;;;;4.87;3.17;;;14.90;99.90;;;;;;4959109;28;20434;-86
2021/05/28 04:40:39;;;;;;;3.30;3.00;;;14.80;99.90;;;;;;4958920;28;20688;-89
2021/05/28 04:43:05;;;;;;;3.63;3.33;;;15.00;99.90;;;;;;4957844;28;20181;-83
2021/05/28 04:45:30;;;;;;;3.30;3.00;;;15.10;99.90;;;;;;4957923;28;20212;-84
2021/05/28 04:47:56;;;;;;;2.90;2.70;;;15.10;99.90;;;;;;4974845;28;20212;-85
2021/05/28 04:50:30;;;;;;;3.53;2.80;;;15.30;99.90;;;;;;4974804;28;20203;-84
2021/05/28 04:52:58;;;;;;;3.30;2.97;;;15.30;99.90;;;;;;4974988;28;20321;-89
2021/05/28 04:55:24;;;;;;;4.90;3.30;;;15.30;99.90;;;;;;4959133;28;20983;-83
2021/05/28 04:57:50;;;;;;;4.53;3.40;;;15.30;99.90;;;;;;4995046;28;20942;-83
2021/05/28 05:00:16;;;;;;;5.70;3.37;;;15.50;99.90;;;;;;4964705;28;20515;-88
2021/05/28 05:02:42;;;;;;;3.47;3.13;;;15.40;99.90;;;;;;5060932;28;20197;-90
2021/05/28 05:05:08;;;;;;;3.40;3.20;;;15.50;99.90;;;;;;5064416;28;20405;-90
2021/05/28 05:07:34;;;;;;;6.90;3.70;;;15.40;99.90;;;;;;5063068;28;20223;-84
2021/05/28 05:09:59;;;;;;;5.53;4.30;;;15.40;99.90;;;;;;4967304;28;20556;-83
2021/05/28 05:12:25;;;;;;;3.40;2.83;;;15.50;99.90;;;;;;4974790;28;20181;-85
2021/05/28 05:14:51;;;;;;;3.10;2.80;;;15.70;99.90;;;;;;4974582;28;20176;-90
2021/05/28 05:17:16;;;;;;;3.50;3.20;;;15.70;99.90;;;;;;4956931;28;20224;-84
2021/05/28 05:19:42;;;;;;;4.90;3.57;;;16.10;99.90;;;;;;4973144;28;20184;-90
2021/05/28 05:22:08;;;;;;;3.30;2.60;;;16.00;99.90;;;;;;4957014;28;20243;-85
2021/05/28 05:24:33;;;;;;;3.23;2.93;;;16.10;99.90;;;;;;4974205;28;20410;-89
2021/05/28 05:26:59;;;;;;;4.20;3.10;;;16.20;99.90;;;;;;4973118;28;20279;-82
2021/05/28 05:29:25;;;;;;;3.43;3.00;;;16.30;99.90;;;;;;4957030;28;20176;-90
2021/05/28 05:31:50;;;;;;;3.83;3.20;;;16.20;99.90;;;;;;5070463;28;20200;-82
2021/05/28 05:34:16;;;;;;;4.00;2.80;;;16.30;99.90;;;;;;5074892;28;20168;-90
2021/05/28 05:36:41;;;;;;;3.30;2.90;;;16.30;99.90;;;;;;5058925;28;20197;-82
2021/05/28 05:39:07;;;;;;;3.20;2.80;;;16.20;99.90;;;;;;5081690;28;20523;-87
2021/05/28 05:41:33;;;;;;;5.77;3.43;;;16.40;99.90;;;;;;5076468;28;20223;-89
2021/05/28 05:43:59;;;;;;;3.70;2.60;;;16.30;99.90;;;;;;5078573;28;20414;-91
2021/05/28 05:46:24;;;;;;;3.57;3.27;;;16.70;99.90;;;;;;5053380;28;20197;-85
2021/05/28 05:48:50;;;;;;;3.53;2.80;;;16.80;99.90;;;;;;5003287;28;20254;-83
2021/05/28 05:51:16;;;;;;;4.90;3.20;;;16.70;99.90;;;;;;5052799;28;20220;-83
2021/05/28 05:53:41;;;;;;;3.17;2.87;;;17.00;99.90;;;;;;5094927;28;20685;-84
2021/05/28 05:56:07;;;;;;;3.70;2.67;;;17.20;99.90;;;;;;5079326;28;20196;-91
2021/05/28 05:58:33;;;;;;;4.93;3.70;;;17.10;99.90;;;;;;5110294;28;20172;-83
2021/05/28 06:00:59;;;;;;;3.40;3.10;;;17.40;99.90;;;;;;5063557;28;20640;-90
2021/05/28 06:03:24;;;;;;;3.50;2.80;;;17.40;99.90;;;;;;5000548;28;20433;-89
2021/05/28 06:05:50;;;;;;;3.07;2.50;;;17.50;99.90;;;;;;5027611;28;20223;-82
2021/05/28 06:08:16;;;;;;;5.63;3.07;;;17.80;99.90;;;;;;5063693;28;20190;-83
2021/05/28 06:10:41;;;;;;;3.60;3.30;;;18.00;99.90;;;;;;4980302;28;20452;-90
2021/05/28 06:13:08;;;;;;;3.83;3.47;;;18.20;99.90;;;;;;4975725;28;20696;-82
2021/05/28 06:15:34;;;;;;;4.00;2.80;;;18.00;99.90;;;;;;4994836;28;20252;-84
2021/05/28 06:18:01;;;;;;;4.53;2.93;;;18.00;99.90;;;;;;4980133;28;20425;-84
2021/05/28 06:20:27;;;;;;;3.70;3.40;;;18.40;99.90;;;;;;4973857;28;20458;-85
2021/05/28 06:22:52;;;;;;;4.80;3.00;;;18.40;99.90;;;;;;4986205;28;20447;-86
2021/05/28 06:25:18;;;;;;;2.80;2.50;;;18.10;99.90;;;;;;4975582;28;20458;-83
2021/05/28 06:27:44;;;;;;;3.13;2.43;;;18.10;99.90;;;;;;4990152;28;20184;-90
2021/05/28 06:30:11;;;;;;;4.50;2.33;;;18.00;99.90;;;;;;5037006;28;20263;-86
2021/05/28 06:32:37;;;;;;;1.83;1.73;;;18.20;99.90;;;;;;4980199;28;20460;-89
2021/05/28 06:35:03;;;;;;;2.70;2.50;;;18.40;99.90;;;;;;4986594;28;20795;-83
2021/05/28 06:37:29;;;;;;;2.40;2.20;;;18.50;99.90;;;;;;4977093;28;20425;-84
2021/05/28 06:39:55;;;;;;;3.00;2.70;;;19.20;99.90;;;;;;4989194;28;20487;-90
2021/05/28 06:42:21;;;;;;;2.70;2.50;;;19.40;99.90;;;;;;5013846;28;20224;-86
2021/05/28 06:44:46;;;;;;;2.73;2.53;;;19.60;99.90;;;;;;5006765;28;20194;-84
2021/05/28 06:47:12;;;;;;;4.63;2.93;;;19.90;99.90;;;;;;4974761;28;20457;-84
2021/05/28 06:49:38;;;;;;;4.90;2.57;;;19.90;99.90;;;;;;4994625;28;20593;-84
2021/05/28 06:52:04;;;;;;;3.93;2.37;;;19.80;99.90;;;;;;4971342;28;20475;-89
2021/05/28 06:54:31;;;;;;;2.43;2.23;;;19.70;99.90;;;;;;4971371;28;20411;-84
2021/05/28 06:56:57;;;;;;;2.47;2.23;;;20.10;99.90;;;;;;4961931;28;20438;-84
2021/05/28 06:59:23;;;;;;;2.73;2.53;;;20.10;99.90;;;;;;4982039;28;20411;-83
2021/05/28 07:01:48;;;;;;;2.50;2.27;;;20.00;99.90;;;;;;5025775;28;20251;-83
2021/05/28 07:04:14;;;;;;;2.20;2.10;;;20.00;99.90;;;;;;4988460;28;20180;-83
2021/05/28 07:06:39;;;;;;;4.23;3.00;;;19.90;99.90;;;;;;5023494;28;20222;-89
2021/05/28 07:09:07;;;;;;;3.30;2.57;;;20.00;99.90;;;;;;5023712;28;20189;-90
2021/05/28 07:11:33;;;;;;;5.77;2.93;;;20.10;99.90;;;;;;4969750;28;20207;-84
2021/05/28 07:13:59;;;;;;;2.70;2.50;;;19.70;99.90;;;;;;5031715;28;20427;-90
2021/05/28 07:16:25;;;;;;;3.87;2.77;;;19.80;99.90;;;;;;4975641;28;20474;-84
2021/05/28 07:18:51;;;;;;;2.37;2.17;;;20.00;99.90;;;;;;4973674;28;20433;-83
2021/05/28 07:21:17;;;;;;;4.70;2.30;;;20.50;99.90;;;;;;4987869;28;20471;-83
2021/05/28 07:23:42;;;;;;;3.00;2.60;;;20.60;99.90;;;;;;4973531;28;20187;-84
2021/05/28 07:26:08;;;;;;;2.97;2.70;;;20.40;99.90;;;;;;4992193;28;20512;-91
2021/05/28 07:28:34;;;;;;;5.23;2.50;;;20.60;99.90;;;;;;4993719;28;20266;-91
2021/05/28 07:31:00;;;;;;;3.27;2.40;;;20.80;99.90;;;;;;4967987;28;20207;-84
2021/05/28 07:33:26;;;;;;;2.80;2.57;;;20.60;99.90;;;;;;4987669;28;20187;-83
2021/05/28 07:35:53;;;;;;;2.93;2.27;;;20.20;99.90;;;;;;4986087;28;20289;-89
2021/05/28 07:38:19;;;;;;;3.87;2.60;;;20.40;99.90;;;;;;4969933;28;20432;-91
2021/05/28 07:40:45;;;;;;;3.43;2.80;;;20.40;99.90;;;;;;4966251;28;20459;-88
2021/05/28 07:43:10;;;;;;;3.90;2.47;;;20.70;99.90;;;;;;4978599;28;20444;-83
2021/05/28 07:45:37;;;;;;;5.30;2.50;;;20.30;99.90;;;;;;4962644;28;20496;-84
2021/05/28 07:48:04;;;;;;;4.90;2.90;;;20.90;99.90;;;;;;4959113;28;20630;-89
2021/05/28 07:50:44;;;;;;;3.53;2.47;;;19.60;99.90;;;;;;5009452;28;20514;-88
2021/05/28 07:53:11;;;;;;;6.30;2.80;;;20.40;99.90;;;;;;5046457;28;20466;-84
2021/05/28 07:55:37;;;;;;;4.33;2.70;;;20.70;99.90;;;;;;5076259;28;20425;-90
2021/05/28 07:58:03;;;;;;;5.97;2.70;;;20.90;99.90;;;;;;5075525;28;20505;-89
2021/05/28 08:00:29;;;;;;;6.50;2.73;;;21.00;99.90;;;;;;5072048;28;21550;-89
2021/05/28 08:02:54;;;;;;;8.10;2.23;;;21.00;99.90;;;;;;5071080;28;20428;-91
2021/05/28 08:05:20;;;;;;;5.20;2.40;;;21.10;99.90;;;;;;5071089;28;20416;-83
2021/05/28 08:07:46;;;;;;;2.87;2.67;;;21.30;99.90;;;;;;5056712;28;20188;-86
2021/05/28 08:10:11;;;;;;;3.70;2.67;;;21.20;99.90;;;;;;5056439;28;20184;-88
2021/05/28 08:12:40;;;;;;;2.50;2.30;;;21.10;99.90;;;;;;5077873;28;20263;-93
2021/05/28 08:15:06;;;;;;;3.03;2.73;;;20.80;99.90;;;;;;5070955;28;20183;-83
2021/05/28 08:17:35;;;;;;;2.63;2.50;;;20.50;99.90;;;;;;5054448;28;20440;-84
2021/05/28 08:20:04;;;;;;;2.90;2.40;;;20.20;99.90;;;;;;5057397;28;20849;-85
2021/05/28 08:22:29;;;;;;;3.63;2.67;;;19.90;99.90;;;;;;5074375;28;20492;-83
2021/05/28 08:24:55;;;;;;;2.67;2.20;;;19.90;99.90;;;;;;5065730;28;21190;-82
2021/05/28 08:27:21;;;;;;;2.20;2.00;;;20.40;99.90;;;;;;5070295;28;20200;-91
2021/05/28 08:29:46;;;;;;;2.60;2.40;;;20.40;99.90;;;;;;5056530;28;20180;-82
2021/05/28 08:32:12;;;;;;;4.30;2.53;;;20.20;99.90;;;;;;5070166;28;20608;-89
2021/05/28 08:34:38;;;;;;;3.17;2.97;;;19.90;99.90;;;;;;5054648;28;20202;-87
2021/05/28 08:37:03;;;;;;;2.60;2.40;;;20.50;99.90;;;;;;5063790;28;20216;-84
2021/05/28 08:39:29;;;;;;;3.60;2.90;;;20.70;99.90;;;;;;5053375;28;20191;-83
2021/05/28 08:41:55;;;;;;;4.03;2.80;;;20.80;99.90;;;;;;5054887;28;20252;-84
2021/05/28 08:44:25;;;;;;;3.03;2.73;;;20.70;99.90;;;;;;5065827;28;20271;-88
2021/05/28 08:46:54;;;;;;;4.33;3.17;;;20.90;99.90;;;;;;5054770;28;20456;-87
2021/05/28 08:49:21;;;;;;;2.87;2.67;;;20.70;99.90;;;;;;5056132;28;20512;-83
2021/05/28 08:51:47;;;;;;;3.03;2.83;;;20.60;99.90;;;;;;5052407;28;20540;-87
2021/05/28 08:54:13;;;;;;;3.00;2.77;;;20.60;99.90;;;;;;5051780;28;20456;-83
2021/05/28 08:56:39;;;;;;;2.80;2.60;;;20.60;99.90;;;;;;4999307;28;20490;-82
2021/05/28 08:59:06;;;;;;;3.27;2.90;;;21.10;99.90;;;;;;4993967;28;20429;-84
2021/05/28 09:01:34;;;;;;;3.57;2.47;;;21.00;99.90;;;;;;4984966;28;20593;-92
2021/05/28 09:04:02;;;;;;;3.63;2.77;;;21.30;99.90;;;;;;4982140;28;20445;-82
2021/05/28 09:06:40;;;;;;;3.83;2.80;;;21.50;99.90;;;;;;5013148;28;20971;-83
2021/05/28 09:09:11;;;;;;;2.67;2.43;;;21.30;99.90;;;;;;4984905;28;20439;-88
2021/05/28 09:11:57;;;;;;;3.27;2.60;;;21.60;99.90;;;;;;4999394;28;20492;-90
2021/05/28 09:14:41;;;;;;;3.43;2.33;;;21.70;99.90;;;;;;5024252;28;20425;-82
2021/05/28 09:17:08;;;;;;;2.80;2.60;;;21.60;99.90;;;;;;5005565;28;20882;-83
2021/05/28 09:19:35;;;;;;;3.87;2.30;;;22.10;99.90;;;;;;5003479;28;20419;-92
2021/05/28 09:22:06;;;;;;;5.37;2.20;;;22.30;99.90;;;;;;4991691;28;20484;-83
2021/05/28 09:24:40;;;;;;;3.63;2.50;;;21.90;99.90;;;;;;5003294;28;20454;-84
2021/05/28 09:27:27;;;;;;;2.13;1.93;;;21.70;99.90;;;;;;4983824;28;20828;-83
2021/05/28 09:30:14;;;;;;;4.33;2.30;;;22.20;99.90;;;;;;4981285;28;20481;-83
2021/05/28 09:32:45;;;;;;;2.60;2.40;;;22.90;99.90;;;;;;5071060;28;20426;-83
2021/05/28 09:35:14;;;;;;;4.70;2.40;;;22.90;99.90;;;;;;5029532;28;20417;-90
2021/05/28 09:37:48;;;;;;;2.77;2.20;;;23.40;99.90;;;;;;5025491;28;20444;-90
2021/05/28 09:40:19;;;;;;;2.43;2.23;;;23.40;99.90;;;;;;5026364;28;20446;-87
2021/05/28 09:42:53;;;;;;;2.57;2.37;;;22.60;99.90;;;;;;4996837;28;20808;-84
2021/05/28 09:45:35;;;;;;;2.67;2.47;;;22.50;99.90;;;;;;5011721;28;20912;-94
2021/05/28 09:48:04;;;;;;;4.73;2.73;;;23.10;99.90;;;;;;5007583;28;20438;-83
2021/05/28 09:50:34;;;;;;;2.90;2.63;;;23.20;99.90;;;;;;5037453;28;20484;-83
2021/05/28 09:53:04;;;;;;;4.10;2.60;;;22.80;99.90;;;;;;4994273;28;20482;-84
2021/05/28 09:55:32;;;;;;;4.00;2.43;;;22.60;99.90;;;;;;4963473;28;20757;-86
2021/05/28 09:57:58;;;;;;;4.83;2.40;;;22.70;99.90;;;;;;5029397;28;20477;-87
2021/05/28 10:00:33;;;;;;;3.10;2.33;;;22.60;99.90;;;;;;4963839;28;20470;-84
2021/05/28 10:03:23;;;;;;;2.60;2.40;;;22.50;99.90;;;;;;5017753;28;20439;-90
2021/05/28 10:05:55;;;;;;;2.40;2.00;;;22.90;99.90;;;;;;4956936;28;20959;-89
2021/05/28 10:08:22;;;;;;;4.03;2.70;;;22.90;99.90;;;;;;4975078;28;20435;-86
2021/05/28 10:10:51;;;;;;;2.97;2.13;;;22.30;99.90;;;;;;4954344;28;20478;-89
2021/05/28 10:13:19;;;;;;;2.60;2.40;;;22.40;99.90;;;;;;4955535;28;20803;-86
2021/05/28 10:15:46;;;;;;;2.23;2.03;;;22.70;99.90;;;;;;4954688;28;20444;-88
2021/05/28 10:18:13;;;;;;;5.60;2.43;;;22.90;99.90;;;;;;4975432;28;20483;-90
2021/05/28 10:20:42;;;;;;;3.03;2.43;;;23.30;99.60;;;;;;4971120;28;20470;-83
2021/05/28 10:23:10;;;;;;;2.47;2.30;;;23.10;99.90;;;;;;4985581;28;20467;-82
2021/05/28 10:25:38;;;;;;;2.43;2.23;;;22.60;99.90;;;;;;5045660;28;20954;-83
2021/05/28 10:28:08;;;;;;;2.80;2.00;;;22.70;99.60;;;;;;5002829;28;20438;-83
2021/05/28 10:30:43;;;;;;;4.97;2.67;;;23.10;99.90;;;;;;5002022;28;20457;-88
2021/05/28 10:33:23;;;;;;;6.80;2.87;;;23.00;99.30;;;;;;5069042;28;20453;-84
2021/05/28 10:35:52;;;;;;;4.57;2.40;;;22.80;98.70;;;;;;4981746;28;20857;-82
2021/05/28 10:38:29;;;;;;;2.70;2.40;;;22.50;99.50;;;;;;4999295;28;20434;-84
2021/05/28 10:41:15;;;;;;;2.80;2.03;;;23.00;99.10;;;;;;4991551;28;20477;-88
2021/05/28 10:43:50;;;;;;;4.47;2.10;;;23.30;97.90;;;;;;5033448;28;20437;-82
2021/05/28 10:46:19;;;;;;;3.10;2.90;;;23.60;98.50;;;;;;5029207;28;20510;-84
2021/05/28 10:48:45;;;;;;;2.40;2.20;;;24.00;97.90;;;;;;4961001;28;20435;-84
2021/05/28 10:51:22;;;;;;;4.70;2.10;;;23.80;97.30;;;;;;5000196;28;20475;-85
2021/05/28 10:53:51;;;;;;;5.20;2.73;;;23.50;97.10;;;;;;5012805;28;20287;-87
2021/05/28 10:56:22;;;;;;;3.47;2.40;;;23.20;97.60;;;;;;5018149;28;20478;-85
2021/05/28 10:59:02;;;;;;;2.63;1.90;;;23.70;97.40;;;;;;4991320;28;20431;-88
2021/05/28 11:01:56;;;;;;;2.03;1.63;;;23.70;97.90;;;;;;5003868;28;20478;-83
2021/05/28 11:04:43;;;;;;;3.10;2.00;;;23.80;97.00;;;;;;4956320;28;20446;-89
2021/05/28 11:07:09;;;;;;;4.37;1.83;;;24.20;96.60;;;;;;5049184;28;20463;-85
2021/05/28 11:09:38;;;;;;;2.30;2.10;;;24.20;95.70;;;;;;5003099;28;20477;-84
2021/05/28 11:12:12;;;;;;;1.80;1.70;;;24.00;95.90;;;;;;5008221;28;20212;-89
2021/05/28 11:14:59;;;;;;;4.53;2.43;;;24.40;96.40;;;;;;4967156;28;20532;-83
2021/05/28 11:17:25;;;;;;;2.73;2.53;;;24.30;96.80;;;;;;4999046;28;20520;-85
2021/05/28 11:19:53;;;;;;;2.03;1.77;;;23.90;95.40;;;;;;5022773;28;20422;-89
2021/05/28 11:22:30;;;;;;;1.97;1.87;;;23.90;95.20;;;;;;5021948;28;20488;-83
2021/05/28 11:25:02;;;;;;;1.90;1.53;;;23.80;94.70;;;;;;5027271;28;20419;-92
2021/05/28 11:27:31;;;;;;;1.90;1.80;;;24.20;94.30;;;;;;5031247;28;20445;-84
2021/05/28 11:30:02;;;;;;;2.37;1.80;;;24.10;94.80;;;;;;4999371;28;20479;-87
2021/05/28 11:32:43;;;;;;;8.93;2.40;;;24.20;94.10;;;;;;5036697;28;20487;-82
2021/05/28 11:35:15;;;;;;;3.00;1.80;;;24.70;95.40;;;;;;5015697;28;20417;-87
2021/05/28 11:37:50;;;;;;;2.70;2.07;;;24.90;95.10;;;;;;5020693;28;20804;-86
2021/05/28 11:40:31;;;;;;;3.67;1.63;;;24.70;93.40;;;;;;5001819;28;20537;-89
2021/05/28 11:43:12;;;;;;;2.43;1.67;;;25.00;94.80;;;;;;5046090;28;20477;-88
2021/05/28 11:45:41;;;;;;;4.63;1.67;;;23.50;92.60;;;;;;5028765;28;20975;-88
2021/05/28 11:48:16;;;;;;;1.93;1.73;;;24.00;93.80;;;;;;4986059;28;20787;-83
2021/05/28 11:50:55;;;;;;;6.90;1.90;;;24.40;92.60;;;;;;5030145;28;20447;-88
2021/05/28 11:53:21;;;;;;;3.53;1.80;;;24.70;92.80;;;;;;5036910;28;20447;-88
2021/05/28 11:55:55;;;;;;;1.60;1.50;;;25.00;93.80;;;;;;4998042;28;20460;-83
2021/05/28 11:58:24;;;;;;;3.30;2.10;;;25.10;92.80;;;;;;5020754;28;20452;-85
2021/05/28 12:00:54;;;;;;;2.20;1.60;;;25.00;92.00;;;;;;5027681;28;20521;-93
2021/05/28 12:03:21;;;;;;;4.83;2.10;;;24.70;92.60;;;;;;5024510;28;20436;-89
2021/05/28 12:05:48;;;;;;;1.83;1.70;;;24.60;91.40;;;;;;5045903;28;20456;-84
2021/05/28 12:08:19;;;;;;;1.80;1.70;;;24.60;92.30;;;;;;5034736;28;20438;-82
2021/05/28 12:10:58;;;;;;;5.10;2.13;;;24.10;91.60;;;;;;5003260;28;20458;-88
2021/05/28 12:13:25;;;;;;;2.60;1.80;;;24.00;91.40;;;;;;5028910;28;20439;-89
2021/05/28 12:15:51;;;;;;;4.70;2.17;;;24.80;92.70;;;;;;5005383;28;20440;-94
2021/05/28 12:18:24;;;;;;;8.90;1.90;;;25.00;91.00;;;;;;5029155;28;20436;-92
2021/05/28 12:21:07;;;;;;;2.37;1.67;;;24.70;90.40;;;;;;5027587;28;20976;-90
2021/05/28 12:23:37;;;;;;;2.10;1.50;;;24.80;89.00;;;;;;5009773;28;20449;-90
2021/05/28 12:26:07;;;;;;;1.70;1.60;;;25.50;89.60;;;;;;5004809;28;20460;-83
2021/05/28 12:28:35;;;;;;;2.50;1.47;;;25.50;87.60;;;;;;4989619;28;20437;-91
2021/05/28 12:31:01;;;;;;;2.27;1.70;;;25.80;88.70;;;;;;5006375;28;20443;-84
2021/05/28 12:33:30;;;;;;;1.87;1.70;;;25.80;84.00;;;;;;4987074;28;20437;-86
2021/05/28 12:35:59;;;;;;;1.90;1.80;;;26.10;85.10;;;;;;4991213;28;20218;-89
2021/05/28 12:38:36;;;;;;;1.80;1.70;;;26.00;86.20;;;;;;5016211;28;20979;-90
2021/05/28 12:41:03;;;;;;;2.33;2.20;;;26.00;84.10;;;;;;5004420;28;20570;-84
2021/05/28 12:43:31;;;;;;;2.17;1.97;;;26.00;84.90;;;;;;4976379;28;21005;-84
2021/05/28 12:45:58;;;;;;;2.57;1.73;;;26.20;83.90;;;;;;5029879;28;20501;-84
2021/05/28 12:48:45;;;;;;;2.30;1.60;;;26.10;82.80;;;;;;5023564;28;20463;-84
2021/05/28 12:51:12;;;;;;;1.67;1.57;;;26.40;82.90;;;;;;4997383;28;20586;-85